Terminal Aerodrome Forecast
Issued by NWS Cleveland, OH

Home | Current Version | Previous Version | Graphics & Text | Print | Product List | Glossary Off
Versions: 1 2 3 4 5 6 7 8 9 10 11 12 13 14 15 16 17

000
FTUS41 KCLE 061100
TAFERI
TAF
KERI 061137Z 0612/0712 18010KT P6SM SKC
     FM061700 21012G20KT P6SM BKN200
     FM062000 21012G22KT P6SM SCT030 BKN200
      TEMPO 0621/0701 BKN030
     FM070300 21012G20KT P6SM BKN050 OVC120=

USA.gov is the U.S. government's official web portal to all federal, state and local government web resources and services.